Time;durP1;ratioP1;P1;durP2;ratioP2;P2;SDS_P1;SDS_P2;PMS_P1;PMS_P2;Temp;Humidity;BMP_temperature;BMP_pressure;BME280_temperature;BME280_humidity;BME280_pressure;Samples;Min_cycle;Max_cycle;Signal;HPM_P1;HPM_P2
2024/01/03 00:02:00;;;;;;;5.63;2.45;;;23.00;46.50;;;;;;6212121;27;81557;-54
2024/01/03 00:05:01;;;;;;;3.50;2.25;;;23.00;46.60;;;;;;6208736;27;81534;-55
2024/01/03 00:08:01;;;;;;;7.85;3.45;;;23.00;46.40;;;;;;6207974;27;80914;-54
2024/01/03 00:11:02;;;;;;;5.32;2.67;;;23.00;46.60;;;;;;6206559;27;82108;-53
2024/01/03 00:14:03;;;;;;;4.53;2.53;;;23.00;46.70;;;;;;6210928;27;80458;-56
2024/01/03 00:17:04;;;;;;;5.55;2.80;;;23.00;46.70;;;;;;6200367;27;81492;-52
2024/01/03 00:20:04;;;;;;;5.35;2.80;;;22.90;46.40;;;;;;6196396;27;87301;-54
2024/01/03 00:23:05;;;;;;;3.50;2.42;;;22.90;46.40;;;;;;6221438;27;82789;-55
2024/01/03 00:26:05;;;;;;;3.50;2.50;;;22.90;46.30;;;;;;6206105;27;80402;-58
2024/01/03 00:29:06;;;;;;;3.75;2.35;;;22.90;46.30;;;;;;6215402;27;81051;-59
2024/01/03 00:32:06;;;;;;;3.85;2.47;;;22.90;46.20;;;;;;6203960;27;80646;-58
2024/01/03 00:35:07;;;;;;;2.70;1.58;;;22.90;46.40;;;;;;6205063;27;80523;-59
2024/01/03 00:38:07;;;;;;;4.15;2.42;;;22.90;46.40;;;;;;6214449;27;81698;-56
2024/01/03 00:41:12;;;;;;;3.92;2.08;;;22.90;46.50;;;;;;6210097;27;81679;-58
2024/01/03 00:44:13;;;;;;;2.67;2.10;;;23.00;46.60;;;;;;6207058;27;81266;-56
2024/01/03 00:47:13;;;;;;;4.10;1.80;;;22.90;46.30;;;;;;6205601;27;80475;-57
2024/01/03 00:50:14;;;;;;;3.30;1.80;;;22.90;46.30;;;;;;6205926;27;80963;-57
2024/01/03 00:53:16;;;;;;;2.42;1.77;;;22.90;46.30;;;;;;6223532;27;83968;-57
2024/01/03 00:56:16;;;;;;;6.60;2.65;;;22.90;46.10;;;;;;6225980;27;80874;-55
2024/01/03 00:59:16;;;;;;;2.38;1.95;;;23.00;46.00;;;;;;6222643;27;80359;-56
2024/01/03 01:02:17;;;;;;;3.13;1.58;;;23.00;46.00;;;;;;6224614;27;80651;-56
2024/01/03 01:05:17;;;;;;;2.70;1.65;;;22.90;46.10;;;;;;6223662;27;80426;-52
2024/01/03 01:08:18;;;;;;;2.45;1.58;;;22.90;46.00;;;;;;6204970;27;82997;-54
2024/01/03 01:11:18;;;;;;;3.17;1.83;;;23.00;46.20;;;;;;6204696;27;81255;-50
2024/01/03 01:14:19;;;;;;;2.85;1.83;;;23.00;46.10;;;;;;6201089;27;80690;-56
2024/01/03 01:17:19;;;;;;;2.80;1.90;;;23.00;46.10;;;;;;6200811;27;81461;-52
2024/01/03 01:20:20;;;;;;;1.73;1.40;;;23.00;46.10;;;;;;6227688;27;81563;-53
2024/01/03 01:23:21;;;;;;;2.42;1.30;;;23.00;46.00;;;;;;6251080;27;82095;-56
2024/01/03 01:26:21;;;;;;;1.40;1.20;;;23.00;45.80;;;;;;6223115;27;80551;-54
2024/01/03 01:29:22;;;;;;;2.45;1.30;;;23.00;46.10;;;;;;6223683;27;80535;-54
2024/01/03 01:32:22;;;;;;;2.08;1.60;;;23.00;45.90;;;;;;6222401;27;80437;-55
2024/01/03 01:35:23;;;;;;;2.83;1.63;;;23.00;45.70;;;;;;6222288;27;82319;-52
2024/01/03 01:38:23;;;;;;;2.42;1.60;;;23.00;46.10;;;;;;6217001;27;82701;-53
2024/01/03 01:41:24;;;;;;;1.95;1.40;;;23.00;46.20;;;;;;6227566;27;81684;-67
2024/01/03 01:44:24;;;;;;;1.60;1.38;;;23.00;46.30;;;;;;6213894;27;80964;-67
2024/01/03 01:47:25;;;;;;;1.48;1.00;;;23.00;46.20;;;;;;6213673;28;80806;-68
2024/01/03 01:50:25;;;;;;;2.03;1.35;;;22.90;46.30;;;;;;6216141;27;80632;-67
2024/01/03 01:53:26;;;;;;;1.98;1.23;;;23.00;46.40;;;;;;6207455;27;80326;-68
2024/01/03 01:56:26;;;;;;;0.88;0.88;;;23.00;46.50;;;;;;6206166;27;81315;-68
2024/01/03 01:59:27;;;;;;;1.70;1.02;;;23.00;46.40;;;;;;6215326;27;83190;-63
2024/01/03 02:02:27;;;;;;;1.30;1.02;;;23.00;46.50;;;;;;6255365;27;83311;-62
2024/01/03 02:05:28;;;;;;;1.42;0.90;;;23.00;46.70;;;;;;6216352;27;80343;-62
2024/01/03 02:08:30;;;;;;;2.25;1.13;;;23.00;46.60;;;;;;6213148;28;81351;-62
2024/01/03 02:11:30;;;;;;;1.27;1.00;;;23.00;46.40;;;;;;6212475;27;80835;-63
2024/01/03 02:14:31;;;;;;;1.00;0.90;;;23.00;46.60;;;;;;6213547;28;80443;-63
2024/01/03 02:17:31;;;;;;;2.05;1.25;;;23.00;46.50;;;;;;6223214;27;81977;-67
2024/01/03 02:20:35;;;;;;;1.77;0.95;;;22.90;46.50;;;;;;6219023;27;80889;-70
2024/01/03 02:23:35;;;;;;;1.30;0.98;;;23.00;46.50;;;;;;6219273;27;80637;-69
2024/01/03 02:26:36;;;;;;;0.82;0.70;;;23.00;46.50;;;;;;6205457;27;80631;-69
2024/01/03 02:29:36;;;;;;;1.23;0.82;;;23.00;46.50;;;;;;6225104;27;82851;-68
2024/01/03 02:32:37;;;;;;;0.90;0.90;;;23.00;46.60;;;;;;6224316;27;80411;-68
2024/01/03 02:35:37;;;;;;;0.75;0.75;;;23.00;46.60;;;;;;6219189;27;80607;-67
2024/01/03 02:38:38;;;;;;;1.17;0.80;;;23.00;46.60;;;;;;6228093;27;81480;-68
2024/01/03 02:41:38;;;;;;;0.93;0.80;;;23.00;46.50;;;;;;6227644;27;82408;-68
2024/01/03 02:44:39;;;;;;;1.10;0.77;;;23.00;46.50;;;;;;6204960;28;81613;-69
2024/01/03 02:47:39;;;;;;;0.98;0.63;;;23.00;46.50;;;;;;6202887;27;80311;-65
2024/01/03 02:50:44;;;;;;;1.08;0.60;;;23.00;46.50;;;;;;6225504;27;81211;-70
2024/01/03 02:53:45;;;;;;;1.23;0.70;;;23.00;46.60;;;;;;6228348;27;81500;-69
2024/01/03 02:56:45;;;;;;;0.80;0.80;;;23.00;46.50;;;;;;6226639;27;80538;-68
2024/01/03 02:59:46;;;;;;;0.60;0.57;;;23.00;47.10;;;;;;6205134;27;80983;-69
2024/01/03 03:02:46;;;;;;;0.70;0.63;;;23.00;47.10;;;;;;6224777;27;80411;-66
2024/01/03 03:05:47;;;;;;;1.10;0.50;;;23.00;46.40;;;;;;6227968;27;82988;-67
2024/01/03 03:08:47;;;;;;;0.82;0.75;;;23.00;46.40;;;;;;6228946;27;80366;-66
2024/01/03 03:11:48;;;;;;;0.55;0.50;;;23.00;46.30;;;;;;6228030;27;82476;-59
2024/01/03 03:14:48;;;;;;;0.50;0.50;;;23.00;46.40;;;;;;6225647;27;80507;-57
2024/01/03 03:17:49;;;;;;;0.73;0.63;;;23.00;46.50;;;;;;6204520;27;81455;-57
2024/01/03 03:20:49;;;;;;;1.00;0.60;;;23.00;46.50;;;;;;6216012;27;80506;-58
2024/01/03 03:23:50;;;;;;;1.67;0.80;;;23.00;46.30;;;;;;6225572;27;80532;-55
2024/01/03 03:26:51;;;;;;;0.93;0.63;;;23.00;46.20;;;;;;6208938;27;80814;-57
2024/01/03 03:29:52;;;;;;;0.52;0.52;;;23.00;46.20;;;;;;6223902;27;83906;-59
2024/01/03 03:32:53;;;;;;;0.50;0.50;;;23.00;46.20;;;;;;6209483;27;80874;-58
2024/01/03 03:35:53;;;;;;;1.25;0.50;;;23.00;46.20;;;;;;6216027;28;80177;-57
2024/01/03 03:38:54;;;;;;;0.68;0.57;;;23.00;46.20;;;;;;6207314;27;80488;-59
2024/01/03 03:41:55;;;;;;;0.57;0.40;;;23.00;46.20;;;;;;6203121;27;80935;-59
2024/01/03 03:44:55;;;;;;;0.50;0.50;;;23.00;46.30;;;;;;6214096;27;80328;-59
2024/01/03 03:47:56;;;;;;;0.55;0.55;;;23.00;46.30;;;;;;6218938;27;80509;-55
2024/01/03 03:50:56;;;;;;;0.57;0.47;;;23.00;46.30;;;;;;6209816;27;81013;-56
2024/01/03 03:53:57;;;;;;;0.60;0.40;;;23.00;46.30;;;;;;6226109;27;81012;-51
2024/01/03 03:56:58;;;;;;;0.40;0.40;;;23.00;46.40;;;;;;6226167;27;81439;-54
2024/01/03 03:59:58;;;;;;;0.55;0.55;;;23.00;46.30;;;;;;6224987;27;81247;-56
2024/01/03 04:02:59;;;;;;;0.75;0.40;;;23.00;46.40;;;;;;6213514;27;80478;-54
2024/01/03 04:05:59;;;;;;;0.82;0.55;;;23.00;46.40;;;;;;6218350;27;81797;-59
2024/01/03 04:08:59;;;;;;;0.45;0.40;;;23.00;46.50;;;;;;6216104;27;80711;-59
2024/01/03 04:12:00;;;;;;;0.50;0.50;;;23.00;46.50;;;;;;6207878;27;80839;-59
2024/01/03 04:15:01;;;;;;;2.50;0.50;;;23.00;46.60;;;;;;6213695;27;81624;-59
2024/01/03 04:18:01;;;;;;;0.35;0.35;;;23.00;46.60;;;;;;6217967;27;84087;-60
2024/01/03 04:21:05;;;;;;;0.57;0.57;;;23.00;46.70;;;;;;6225498;27;80815;-60
2024/01/03 04:24:05;;;;;;;0.47;0.47;;;23.10;46.60;;;;;;6226105;27;80604;-55
2024/01/03 04:27:06;;;;;;;0.32;0.32;;;23.10;46.50;;;;;;6223684;27;80853;-57
2024/01/03 04:30:06;;;;;;;0.88;0.40;;;23.10;46.30;;;;;;6225707;27;80812;-56
2024/01/03 04:33:07;;;;;;;0.50;0.50;;;23.10;45.90;;;;;;6225423;27;80982;-57
2024/01/03 04:36:07;;;;;;;1.45;0.30;;;23.10;45.80;;;;;;6223231;27;82338;-58
2024/01/03 04:39:08;;;;;;;0.68;0.47;;;23.10;45.70;;;;;;6225770;27;81220;-54
2024/01/03 04:42:08;;;;;;;0.50;0.30;;;23.10;45.70;;;;;;6224650;27;81851;-53
2024/01/03 04:45:09;;;;;;;1.27;0.47;;;23.20;45.60;;;;;;6224017;27;80476;-57
2024/01/03 04:48:10;;;;;;;0.45;0.40;;;23.20;45.60;;;;;;6221202;27;80678;-59
2024/01/03 04:51:10;;;;;;;1.17;0.43;;;23.20;45.40;;;;;;6221507;27;80467;-60
2024/01/03 04:54:11;;;;;;;0.40;0.40;;;23.20;45.30;;;;;;6221087;27;80575;-57
2024/01/03 04:57:11;;;;;;;0.30;0.30;;;23.20;45.30;;;;;;6219014;27;80447;-57
2024/01/03 05:00:12;;;;;;;1.10;0.40;;;23.30;45.30;;;;;;6211999;27;80283;-58
2024/01/03 05:03:12;;;;;;;1.48;0.60;;;23.30;45.40;;;;;;6213836;27;80755;-67
2024/01/03 05:06:13;;;;;;;0.77;0.57;;;23.30;45.50;;;;;;6215130;27;81388;-66
2024/01/03 05:09:13;;;;;;;1.67;0.88;;;23.30;45.50;;;;;;6218403;27;81588;-61
2024/01/03 05:12:14;;;;;;;1.00;0.80;;;23.30;45.70;;;;;;6225542;27;80838;-65
2024/01/03 05:15:14;;;;;;;1.02;0.65;;;23.40;46.00;;;;;;6211557;27;81312;-68
2024/01/03 05:18:14;;;;;;;1.45;0.90;;;23.40;46.30;;;;;;6214342;27;80544;-65
2024/01/03 05:21:15;;;;;;;2.67;0.93;;;23.40;46.60;;;;;;6204994;28;82024;-60
2024/01/03 05:24:15;;;;;;;0.80;0.68;;;23.50;46.70;;;;;;6207623;27;86176;-59
2024/01/03 05:27:16;;;;;;;1.85;0.90;;;23.50;46.90;;;;;;6222390;27;80410;-59
2024/01/03 05:30:17;;;;;;;3.03;0.63;;;23.50;47.20;;;;;;6225648;27;80810;-55
2024/01/03 05:33:17;;;;;;;1.48;0.60;;;23.50;47.30;;;;;;6225164;27;80898;-66
2024/01/03 05:36:18;;;;;;;2.90;0.65;;;23.50;47.30;;;;;;6225131;27;80366;-60
2024/01/03 05:39:18;;;;;;;16.75;1.48;;;23.50;47.30;;;;;;6225463;27;80396;-64
2024/01/03 05:42:19;;;;;;;2.35;0.88;;;23.60;47.60;;;;;;6212487;28;83295;-64
2024/01/03 05:45:19;;;;;;;1.38;0.90;;;23.60;47.60;;;;;;6206125;27;80273;-67
2024/01/03 05:48:20;;;;;;;3.17;0.80;;;23.60;47.40;;;;;;6210500;27;80424;-60
2024/01/03 05:51:21;;;;;;;1.63;0.88;;;23.60;47.30;;;;;;6205048;27;82926;-62
2024/01/03 05:54:21;;;;;;;3.53;0.93;;;23.60;47.20;;;;;;6217536;27;80447;-61
2024/01/03 05:57:21;;;;;;;0.93;0.70;;;23.60;47.40;;;;;;6214335;27;86987;-59
2024/01/03 06:00:22;;;;;;;1.25;0.60;;;23.60;47.30;;;;;;6221027;27;80750;-60
2024/01/03 06:03:22;;;;;;;1.48;0.60;;;23.60;47.20;;;;;;6220038;27;80836;-63
2024/01/03 06:06:23;;;;;;;0.93;0.60;;;23.60;47.30;;;;;;6213149;27;80639;-62
2024/01/03 06:09:23;;;;;;;0.95;0.70;;;23.60;47.00;;;;;;6220459;27;80537;-62
2024/01/03 06:12:24;;;;;;;1.65;0.70;;;23.60;46.80;;;;;;6220762;27;80825;-64
2024/01/03 06:15:24;;;;;;;0.50;0.50;;;23.60;46.70;;;;;;6223201;27;80861;-69
2024/01/03 06:18:25;;;;;;;2.55;0.70;;;23.20;44.80;;;;;;6211175;27;80342;-69
2024/01/03 06:21:26;;;;;;;1.05;0.88;;;22.60;44.70;;;;;;6228147;27;81360;-67
2024/01/03 06:24:27;;;;;;;1.60;0.80;;;22.20;45.00;;;;;;6226640;27;80545;-66
2024/01/03 06:27:27;;;;;;;4.25;1.33;;;21.60;45.70;;;;;;6222033;27;80612;-68
2024/01/03 06:30:28;;;;;;;2.85;1.15;;;21.50;46.30;;;;;;6222355;27;81120;-67
2024/01/03 06:33:28;;;;;;;1.60;1.02;;;21.30;46.70;;;;;;6218681;27;80609;-57
2024/01/03 06:36:29;;;;;;;4.13;1.02;;;21.00;47.20;;;;;;6226879;27;85475;-54
2024/01/03 06:39:29;;;;;;;4.20;1.30;;;20.90;47.60;;;;;;6225856;27;80549;-57
2024/01/03 06:42:29;;;;;;;4.53;0.95;;;20.80;47.80;;;;;;6209634;27;81519;-53
2024/01/03 06:45:30;;;;;;;1.42;0.98;;;20.60;47.80;;;;;;6209398;27;81512;-56
2024/01/03 06:48:30;;;;;;;4.82;0.95;;;20.10;48.50;;;;;;6222193;28;82328;-54
2024/01/03 06:51:31;;;;;;;1.55;0.82;;;19.90;49.20;;;;;;6219338;27;80537;-54
2024/01/03 06:54:31;;;;;;;1.50;1.10;;;19.70;49.90;;;;;;6213653;27;81250;-56
2024/01/03 06:57:32;;;;;;;1.00;0.90;;;19.50;50.30;;;;;;6212290;27;82248;-55
2024/01/03 07:00:32;;;;;;;1.63;1.02;;;19.30;50.90;;;;;;6207492;27;80980;-56
2024/01/03 07:03:33;;;;;;;2.22;1.05;;;19.00;51.60;;;;;;6220934;27;80401;-55
2024/01/03 07:06:33;;;;;;;2.53;1.15;;;19.10;51.80;;;;;;6221271;27;80312;-55
2024/01/03 07:09:34;;;;;;;3.97;1.02;;;19.40;51.50;;;;;;6215528;27;85111;-55
2024/01/03 07:12:34;;;;;;;1.73;0.80;;;19.80;51.20;;;;;;6225936;27;87820;-53
2024/01/03 07:15:35;;;;;;;0.80;0.80;;;20.10;50.90;;;;;;6221883;27;79944;-53
2024/01/03 07:18:35;;;;;;;1.13;0.90;;;20.30;50.40;;;;;;6220604;27;80842;-51
2024/01/03 07:21:36;;;;;;;1.63;0.90;;;20.40;50.10;;;;;;6216147;27;81347;-54
2024/01/03 07:24:39;;;;;;;2.08;0.95;;;20.50;49.60;;;;;;6218532;27;80677;-55
2024/01/03 07:27:40;;;;;;;1.85;0.90;;;20.70;50.20;;;;;;6222808;27;81067;-54
2024/01/03 07:30:40;;;;;;;4.25;1.08;;;20.80;49.40;;;;;;6225919;27;83307;-55
2024/01/03 07:33:41;;;;;;;2.47;1.00;;;20.80;49.40;;;;;;6227422;27;81020;-55
2024/01/03 07:36:41;;;;;;;1.40;0.95;;;20.90;49.30;;;;;;6215264;27;80660;-56
2024/01/03 07:39:42;;;;;;;1.55;0.90;;;21.00;49.10;;;;;;6220488;27;80752;-54
2024/01/03 07:42:42;;;;;;;1.95;1.15;;;21.00;49.00;;;;;;6226375;27;81071;-55
2024/01/03 07:45:43;;;;;;;3.17;0.90;;;21.10;49.00;;;;;;6226546;27;80306;-54
2024/01/03 07:48:43;;;;;;;4.47;1.30;;;21.10;49.00;;;;;;6226638;27;80451;-58
2024/01/03 07:51:45;;;;;;;2.13;0.75;;;21.10;48.90;;;;;;6225432;27;80118;-59
2024/01/03 07:54:45;;;;;;;2.20;0.90;;;21.10;49.00;;;;;;6225167;27;80360;-59
2024/01/03 07:57:46;;;;;;;1.45;0.95;;;21.20;48.90;;;;;;6226941;27;81647;-59
2024/01/03 08:00:46;;;;;;;3.85;1.85;;;21.20;48.70;;;;;;6224843;27;80401;-60
2024/01/03 08:03:47;;;;;;;3.28;1.13;;;21.20;49.20;;;;;;6224992;27;80373;-60
2024/01/03 08:06:47;;;;;;;3.88;0.98;;;21.30;48.60;;;;;;6224526;27;81501;-64
2024/01/03 08:09:49;;;;;;;1.60;1.00;;;21.30;48.70;;;;;;6219778;27;80358;-66
2024/01/03 08:12:49;;;;;;;1.55;0.88;;;21.30;48.60;;;;;;6221299;27;81918;-65
2024/01/03 08:15:50;;;;;;;3.40;1.40;;;21.40;48.70;;;;;;6219906;27;80426;-67
2024/01/03 08:18:50;;;;;;;2.83;1.40;;;21.40;48.50;;;;;;6214517;27;80505;-68
2024/01/03 08:21:51;;;;;;;3.53;1.10;;;21.40;48.40;;;;;;6214233;27;85966;-66
2024/01/03 08:24:51;;;;;;;3.72;1.15;;;21.40;48.40;;;;;;6222286;27;81104;-53
2024/01/03 08:27:52;;;;;;;4.38;1.20;;;21.40;48.50;;;;;;6220579;27;80377;-52
2024/01/03 08:30:52;;;;;;;3.95;1.20;;;21.40;48.70;;;;;;6199931;27;83113;-51
2024/01/03 08:33:53;;;;;;;3.38;1.30;;;21.40;48.80;;;;;;6204285;28;80838;-55
2024/01/03 08:36:53;;;;;;;1.80;1.00;;;21.40;48.70;;;;;;6224122;27;80319;-54
2024/01/03 08:39:54;;;;;;;1.85;1.20;;;21.40;48.70;;;;;;6207342;27;83573;-56
2024/01/03 08:42:54;;;;;;;1.90;1.10;;;21.50;48.40;;;;;;6201247;27;80248;-54
2024/01/03 08:45:55;;;;;;;3.20;1.27;;;21.50;48.40;;;;;;6201485;27;80885;-54
2024/01/03 08:48:55;;;;;;;2.17;1.30;;;21.50;48.50;;;;;;6204920;27;80376;-53
2024/01/03 08:51:57;;;;;;;1.90;1.13;;;21.50;48.40;;;;;;6215065;27;81481;-56
2024/01/03 08:54:59;;;;;;;5.07;1.30;;;21.50;48.30;;;;;;6201950;28;80546;-55
2024/01/03 08:58:00;;;;;;;3.95;1.33;;;21.50;48.40;;;;;;6200812;27;80677;-54
2024/01/03 09:01:00;;;;;;;2.35;1.33;;;21.50;48.30;;;;;;6200850;27;82921;-60
2024/01/03 09:04:01;;;;;;;2.63;1.40;;;21.50;48.30;;;;;;6217638;27;80269;-60
2024/01/03 09:07:02;;;;;;;2.17;1.10;;;21.50;48.40;;;;;;6207152;28;80513;-61
2024/01/03 09:10:02;;;;;;;2.53;1.55;;;21.50;48.30;;;;;;6200564;27;80289;-59
2024/01/03 09:13:03;;;;;;;1.42;0.95;;;21.50;48.40;;;;;;6202287;27;80926;-60
2024/01/03 09:16:03;;;;;;;1.98;1.30;;;21.60;48.50;;;;;;6211119;27;82466;-60
2024/01/03 09:19:04;;;;;;;2.17;1.02;;;21.60;48.40;;;;;;6214231;27;80815;-59
2024/01/03 09:22:04;;;;;;;2.65;1.30;;;21.60;48.40;;;;;;6220134;27;81670;-59
2024/01/03 09:25:05;;;;;;;1.83;1.10;;;21.60;48.30;;;;;;6213010;27;82245;-59
2024/01/03 09:28:05;;;;;;;2.45;1.13;;;21.60;48.30;;;;;;6216496;27;80880;-61
2024/01/03 09:31:06;;;;;;;1.63;1.10;;;21.60;48.30;;;;;;6201305;27;81011;-59
2024/01/03 09:34:06;;;;;;;2.20;0.90;;;21.70;48.10;;;;;;6208246;27;80885;-59
2024/01/03 09:37:07;;;;;;;1.60;1.05;;;21.70;48.20;;;;;;6218895;27;81587;-52
2024/01/03 09:40:09;;;;;;;4.68;1.23;;;21.70;48.10;;;;;;6204693;28;81365;-54
2024/01/03 09:43:10;;;;;;;1.65;0.98;;;21.70;48.00;;;;;;6215911;27;80322;-51
2024/01/03 09:46:11;;;;;;;1.23;0.80;;;21.70;48.00;;;;;;6212957;27;80985;-52
2024/01/03 09:49:11;;;;;;;3.17;1.23;;;21.80;48.00;;;;;;6220859;27;80417;-54
2024/01/03 09:52:12;;;;;;;1.38;1.00;;;21.90;47.90;;;;;;6220454;27;82135;-53
2024/01/03 09:55:12;;;;;;;2.45;1.00;;;22.00;47.70;;;;;;6221515;27;80133;-59
2024/01/03 09:58:13;;;;;;;6.07;1.00;;;22.00;47.60;;;;;;6221791;27;80818;-59
2024/01/03 10:01:13;;;;;;;1.50;1.10;;;22.20;47.50;;;;;;6219448;27;80390;-57
2024/01/03 10:04:14;;;;;;;1.52;0.90;;;22.30;47.30;;;;;;6219923;27;80379;-58
2024/01/03 10:07:14;;;;;;;3.63;1.17;;;22.50;46.80;;;;;;6219972;27;80765;-59
2024/01/03 10:10:15;;;;;;;2.05;0.88;;;22.50;46.80;;;;;;6218911;27;81002;-59
2024/01/03 10:13:15;;;;;;;3.42;1.52;;;22.40;47.00;;;;;;6219624;27;80229;-58
2024/01/03 10:16:16;;;;;;;1.98;0.80;;;22.30;46.90;;;;;;6220210;27;80797;-66
2024/01/03 10:19:16;;;;;;;1.77;1.10;;;22.30;46.90;;;;;;6211904;27;80963;-67
2024/01/03 10:22:17;;;;;;;1.63;1.05;;;22.30;46.80;;;;;;6199720;27;81771;-66
2024/01/03 10:25:17;;;;;;;2.55;1.02;;;22.30;46.50;;;;;;6223572;27;81231;-65
2024/01/03 10:28:18;;;;;;;2.40;1.45;;;22.30;46.80;;;;;;6218246;27;80237;-65
2024/01/03 10:31:18;;;;;;;3.97;1.15;;;22.40;46.60;;;;;;6221678;27;80566;-56
2024/01/03 10:34:19;;;;;;;1.73;0.80;;;22.60;46.20;;;;;;6200213;28;80366;-55
2024/01/03 10:37:19;;;;;;;1.25;0.80;;;22.80;45.60;;;;;;6206109;27;80494;-53
2024/01/03 10:40:20;;;;;;;2.50;1.08;;;23.00;45.10;;;;;;6199284;28;82269;-56
2024/01/03 10:43:20;;;;;;;1.13;0.77;;;23.10;44.80;;;;;;6199116;27;80357;-54
2024/01/03 10:46:21;;;;;;;3.25;1.30;;;23.20;44.50;;;;;;6203667;27;80264;-54
2024/01/03 10:49:21;;;;;;;1.42;0.90;;;23.10;44.60;;;;;;6201007;28;80994;-56
2024/01/03 10:52:22;;;;;;;4.57;1.48;;;23.10;44.40;;;;;;6201213;28;80740;-51
2024/01/03 10:55:24;;;;;;;3.72;0.80;;;23.00;44.40;;;;;;6213136;27;82440;-57
2024/01/03 10:58:24;;;;;;;2.45;1.20;;;23.00;44.40;;;;;;6201685;28;80830;-53
2024/01/03 11:01:25;;;;;;;1.80;1.10;;;22.90;44.40;;;;;;6207667;27;80308;-54
2024/01/03 11:04:25;;;;;;;1.83;1.20;;;22.80;44.50;;;;;;6204475;27;80493;-49
2024/01/03 11:07:28;;;;;;;0.82;0.80;;;22.70;44.50;;;;;;6220004;27;80573;-50
2024/01/03 11:10:28;;;;;;;1.77;1.05;;;22.80;44.50;;;;;;6208566;27;80908;-53
2024/01/03 11:13:29;;;;;;;2.30;1.20;;;22.80;44.40;;;;;;6212561;27;80724;-51
2024/01/03 11:16:29;;;;;;;1.52;1.13;;;22.90;44.30;;;;;;6219424;27;80562;-51
2024/01/03 11:19:30;;;;;;;1.63;1.02;;;23.00;44.30;;;;;;6214802;27;83395;-52
2024/01/03 11:22:30;;;;;;;1.30;0.88;;;22.90;44.00;;;;;;6203435;27;80176;-53
2024/01/03 11:25:31;;;;;;;2.47;1.02;;;22.90;43.90;;;;;;6203841;27;80810;-54
2024/01/03 11:28:31;;;;;;;2.33;1.30;;;22.90;43.90;;;;;;6215355;27;80351;-51
2024/01/03 11:31:32;;;;;;;0.90;0.80;;;22.80;44.00;;;;;;6225795;27;80729;-54
2024/01/03 11:34:32;;;;;;;1.40;0.95;;;22.70;44.10;;;;;;6226339;27;80283;-52
2024/01/03 11:37:33;;;;;;;1.95;0.98;;;22.70;44.20;;;;;;6221568;27;85679;-56
2024/01/03 11:40:33;;;;;;;2.70;1.10;;;22.70;44.20;;;;;;6224067;27;80981;-53
2024/01/03 11:43:34;;;;;;;0.90;0.80;;;22.80;44.20;;;;;;6216812;27;80443;-55
2024/01/03 11:46:34;;;;;;;2.35;1.40;;;22.90;43.90;;;;;;6212279;27;81299;-67
2024/01/03 11:49:35;;;;;;;2.10;1.20;;;22.90;43.80;;;;;;6220498;27;80579;-66
2024/01/03 11:52:35;;;;;;;3.15;1.08;;;22.90;44.00;;;;;;6221344;27;80281;-67
2024/01/03 11:55:35;;;;;;;1.15;0.85;;;22.90;43.90;;;;;;6218221;27;83353;-68
2024/01/03 11:58:36;;;;;;;2.00;0.80;;;22.90;43.70;;;;;;6220341;27;80218;-67
2024/01/03 12:01:36;;;;;;;2.92;1.20;;;22.90;43.70;;;;;;6217589;27;80756;-64
2024/01/03 12:04:38;;;;;;;1.83;0.80;;;23.10;43.60;;;;;;6220148;27;80708;-59
2024/01/03 12:07:38;;;;;;;1.42;1.00;;;23.20;43.50;;;;;;6218498;27;81637;-61
2024/01/03 12:10:40;;;;;;;3.03;1.38;;;23.30;43.30;;;;;;6217432;27;82255;-61
2024/01/03 12:13:40;;;;;;;3.72;1.42;;;23.30;43.00;;;;;;6222555;27;80468;-60
2024/01/03 12:16:41;;;;;;;2.15;1.30;;;23.50;42.70;;;;;;6219290;27;81025;-61
2024/01/03 12:19:41;;;;;;;4.28;1.30;;;23.60;42.30;;;;;;6224667;27;80441;-61
2024/01/03 12:22:42;;;;;;;3.25;1.30;;;23.70;42.20;;;;;;6211288;27;80720;-66
2024/01/03 12:25:43;;;;;;;2.70;1.00;;;23.60;42.40;;;;;;6211173;27;80757;-66
2024/01/03 12:28:43;;;;;;;2.85;1.10;;;23.50;42.30;;;;;;6219029;27;84139;-64
2024/01/03 12:31:44;;;;;;;3.22;1.30;;;23.40;42.60;;;;;;6208670;27;81522;-66
2024/01/03 12:34:44;;;;;;;2.47;1.45;;;23.20;42.70;;;;;;6216149;27;80477;-65
2024/01/03 12:37:46;;;;;;;2.50;1.10;;;23.10;42.80;;;;;;6211058;27;81056;-63
2024/01/03 12:40:47;;;;;;;2.45;1.20;;;23.00;42.90;;;;;;6214727;27;80277;-54
2024/01/03 12:43:47;;;;;;;3.25;1.67;;;23.00;43.00;;;;;;6215474;27;81071;-53
2024/01/03 12:46:47;;;;;;;2.80;1.77;;;23.00;43.20;;;;;;6219906;27;84970;-53
2024/01/03 12:49:48;;;;;;;2.05;1.20;;;22.90;43.20;;;;;;6222963;27;80568;-55
2024/01/03 12:52:49;;;;;;;4.15;1.58;;;22.80;43.20;;;;;;6225265;27;81317;-56
2024/01/03 12:55:49;;;;;;;1.42;1.17;;;22.80;43.30;;;;;;6226204;27;80703;-52
2024/01/03 12:58:50;;;;;;;1.95;0.98;;;22.70;43.40;;;;;;6212453;27;83035;-52
2024/01/03 13:01:50;;;;;;;3.65;1.20;;;22.70;43.40;;;;;;6223799;27;80761;-54
2024/01/03 13:04:51;;;;;;;3.08;1.13;;;22.70;43.50;;;;;;6226152;28;86844;-52
2024/01/03 13:07:51;;;;;;;3.13;0.77;;;22.70;43.50;;;;;;6224473;27;81518;-54
2024/01/03 13:10:53;;;;;;;2.40;1.02;;;22.70;43.60;;;;;;6225879;27;80419;-53
2024/01/03 13:13:53;;;;;;;1.70;1.00;;;22.70;43.30;;;;;;6222745;27;80998;-54
2024/01/03 13:16:54;;;;;;;1.20;1.10;;;22.60;43.40;;;;;;6223562;27;80133;-53
2024/01/03 13:19:54;;;;;;;4.18;1.20;;;22.60;43.50;;;;;;6224148;27;80364;-56
2024/01/03 13:22:55;;;;;;;2.20;0.98;;;22.60;43.70;;;;;;6225431;27;82350;-53
2024/01/03 13:25:55;;;;;;;2.80;1.40;;;22.60;43.50;;;;;;6226272;27;80379;-54
2024/01/03 13:28:56;;;;;;;3.20;1.30;;;22.50;43.40;;;;;;6215218;27;80342;-54
2024/01/03 13:31:56;;;;;;;3.15;1.45;;;22.50;43.40;;;;;;6205298;27;80334;-54
2024/01/03 13:34:59;;;;;;;3.20;1.23;;;22.50;43.60;;;;;;6205018;27;80529;-56
2024/01/03 13:37:59;;;;;;;4.72;1.08;;;22.50;44.00;;;;;;6218791;27;80419;-56
2024/01/03 13:41:00;;;;;;;1.90;1.20;;;22.40;43.70;;;;;;6223611;27;81629;-56
2024/01/03 13:44:00;;;;;;;6.53;1.35;;;22.40;43.70;;;;;;6216733;27;80725;-51
2024/01/03 13:47:01;;;;;;;3.13;1.30;;;22.30;43.30;;;;;;6225705;27;80879;-56
2024/01/03 13:50:02;;;;;;;2.22;1.10;;;22.30;43.40;;;;;;6224704;27;80384;-56
2024/01/03 13:53:03;;;;;;;2.20;1.10;;;22.20;43.40;;;;;;6223679;27;80944;-54
2024/01/03 13:56:04;;;;;;;1.92;1.45;;;22.20;43.50;;;;;;6224011;27;81069;-55
2024/01/03 13:59:05;;;;;;;1.77;1.20;;;22.20;43.60;;;;;;6223373;27;81417;-54
2024/01/03 14:02:05;;;;;;;1.85;1.30;;;22.20;43.40;;;;;;6221211;27;80429;-53
2024/01/03 14:05:06;;;;;;;1.60;1.20;;;22.20;43.70;;;;;;6219887;27;80839;-55
2024/01/03 14:08:07;;;;;;;3.15;1.23;;;22.20;43.50;;;;;;6221139;27;81138;-53
2024/01/03 14:11:07;;;;;;;2.15;0.98;;;22.10;43.70;;;;;;6219271;27;81869;-53
2024/01/03 14:14:08;;;;;;;3.67;1.20;;;22.20;43.90;;;;;;6220447;27;82047;-51
2024/01/03 14:17:08;;;;;;;2.08;1.10;;;22.20;43.60;;;;;;6222309;27;80280;-56
2024/01/03 14:20:12;;;;;;;3.67;1.10;;;22.20;43.80;;;;;;6224184;27;81085;-53
2024/01/03 14:23:12;;;;;;;2.35;1.25;;;22.10;43.90;;;;;;6224153;27;80787;-54
2024/01/03 14:26:13;;;;;;;1.48;0.90;;;22.20;43.80;;;;;;6223959;27;80784;-53
2024/01/03 14:29:13;;;;;;;1.25;0.77;;;22.10;43.80;;;;;;6223682;27;80601;-53
2024/01/03 14:32:14;;;;;;;1.95;1.13;;;22.10;43.80;;;;;;6212436;27;81042;-63
2024/01/03 14:35:15;;;;;;;1.90;1.27;;;22.00;43.90;;;;;;6208820;27;80435;-62
2024/01/03 14:38:16;;;;;;;3.33;1.30;;;22.00;43.30;;;;;;6207287;28;87131;-60
2024/01/03 14:41:18;;;;;;;2.80;1.17;;;21.80;43.60;;;;;;6211980;27;81131;-59
2024/01/03 14:44:21;;;;;;;2.40;1.40;;;21.70;43.50;;;;;;6226835;27;80678;-54
2024/01/03 14:47:22;;;;;;;3.13;1.70;;;21.60;43.50;;;;;;6222596;27;82688;-58
2024/01/03 14:50:24;;;;;;;3.00;1.45;;;21.50;43.50;;;;;;6222756;27;80102;-55
2024/01/03 14:53:24;;;;;;;2.67;1.48;;;21.60;44.40;;;;;;6216695;27;80424;-58
2024/01/03 14:56:27;;;;;;;9.00;1.25;;;21.80;44.60;;;;;;6225022;27;80382;-58
2024/01/03 14:59:27;;;;;;;3.22;1.50;;;21.90;44.90;;;;;;6228595;27;80331;-58
2024/01/03 15:02:28;;;;;;;4.25;1.70;;;22.00;44.90;;;;;;6221692;27;81140;-59
2024/01/03 15:05:28;;;;;;;3.60;1.48;;;22.10;45.10;;;;;;6216621;27;81348;-59
2024/01/03 15:08:29;;;;;;;2.92;1.20;;;22.20;45.20;;;;;;6219458;27;80791;-62
2024/01/03 15:11:29;;;;;;;2.67;1.30;;;22.20;45.10;;;;;;6227955;27;80301;-66
2024/01/03 15:14:30;;;;;;;7.78;2.05;;;22.30;45.30;;;;;;6228938;27;80614;-65
2024/01/03 15:17:30;;;;;;;3.88;1.60;;;22.30;45.20;;;;;;6226096;27;81053;-63
2024/01/03 15:20:31;;;;;;;3.88;1.55;;;22.40;45.20;;;;;;6221770;27;80888;-65
2024/01/03 15:23:31;;;;;;;4.50;1.83;;;22.40;45.30;;;;;;6225917;27;80367;-65
2024/01/03 15:26:32;;;;;;;2.90;1.90;;;22.40;45.30;;;;;;6221820;27;84559;-58
2024/01/03 15:29:32;;;;;;;4.68;1.90;;;22.40;45.30;;;;;;6228852;27;80437;-59
2024/01/03 15:32:33;;;;;;;4.35;2.00;;;22.50;45.30;;;;;;6229395;27;80420;-57
2024/01/03 15:35:33;;;;;;;4.38;1.48;;;22.50;45.20;;;;;;6210953;27;80506;-58
2024/01/03 15:38:34;;;;;;;5.28;2.05;;;22.60;45.10;;;;;;6223057;27;81109;-59
2024/01/03 15:41:34;;;;;;;4.40;2.22;;;22.60;45.00;;;;;;6224461;27;80568;-53